createdAt,value
2023-02-19T00:03:10.137Z,59.81
2023-02-19T00:08:13.233Z,64.06
2023-02-19T00:13:16.436Z,62.17
2023-02-19T00:18:19.650Z,56.72
2023-02-19T00:23:22.643Z,57.25
2023-02-19T00:28:25.672Z,59.45
2023-02-19T00:33:29.973Z,64.78
2023-02-19T00:38:37.901Z,68.56
2023-02-19T00:43:40.981Z,63.69
2023-02-19T00:48:44.720Z,60.60
2023-02-19T00:53:48.905Z,53.58
2023-02-19T00:58:52.275Z,52.33
2023-02-19T01:03:55.392Z,54.57
2023-02-19T01:08:59.412Z,56.06
2023-02-19T01:14:03.744Z,58.30
2023-02-19T01:19:07.562Z,60.22
2023-02-19T01:24:10.773Z,68.88
2023-02-19T01:29:13.909Z,72.96
2023-02-19T01:34:17.088Z,68.27
2023-02-19T01:39:20.106Z,61.48
2023-02-19T01:44:23.200Z,52.05
2023-02-19T01:49:56.513Z,50.88
2023-02-19T01:55:04.856Z,54.00
2023-02-19T02:00:15.780Z,55.73
2023-02-19T02:05:45.870Z,58.45
2023-02-19T02:10:52.100Z,59.09
2023-02-19T02:16:34.685Z,62.88
2023-02-19T02:22:07.933Z,73.19
2023-02-19T02:27:39.582Z,68.81
2023-02-19T02:33:01.625Z,62.78
2023-02-19T02:38:11.452Z,57.24
2023-02-19T02:43:14.594Z,57.52
2023-02-19T02:48:38.613Z,59.79
2023-02-19T02:54:20.100Z,65.61
2023-02-19T02:59:29.847Z,65.52
2023-02-19T03:05:09.845Z,63.56
2023-02-19T03:10:21.231Z,58.52
2023-02-19T03:15:53.947Z,56.22
2023-02-19T03:20:59.361Z,58.12
2023-02-19T03:26:06.005Z,65.69
2023-02-19T03:31:16.516Z,63.34
2023-02-19T03:36:26.327Z,60.55
2023-02-19T03:41:47.248Z,57.86
2023-02-19T03:46:56.392Z,63.81
2023-02-19T03:52:31.650Z,63.93
2023-02-19T03:57:47.529Z,58.06
2023-02-19T04:03:18.835Z,60.63
2023-02-19T04:08:25.860Z,65.28
2023-02-19T04:13:42.250Z,59.68
2023-02-19T04:18:51.710Z,58.02
2023-02-19T04:23:57.414Z,64.31
2023-02-19T04:29:00.586Z,65.38
2023-02-19T04:34:04.870Z,60.79
2023-02-19T04:39:08.948Z,58.65
2023-02-19T04:44:12.253Z,62.68
2023-02-19T04:49:15.557Z,65.70
2023-02-19T04:54:18.609Z,63.35
2023-02-19T04:59:21.716Z,58.97
2023-02-19T05:04:24.947Z,56.84
2023-02-19T05:09:28.184Z,57.16
2023-02-19T05:14:31.298Z,60.09
2023-02-19T05:19:34.399Z,65.03
2023-02-19T05:24:37.523Z,69.05
2023-02-19T05:29:40.815Z,64.72
2023-02-19T05:34:43.932Z,60.82
2023-02-19T05:39:48.358Z,56.68
2023-02-19T05:44:51.566Z,55.38
2023-02-19T05:49:54.673Z,61.38
2023-02-19T05:54:57.705Z,67.08
2023-02-19T06:00:00.889Z,63.80
2023-02-19T06:05:04.830Z,59.79
2023-02-19T06:10:12.264Z,59.88
2023-02-19T06:15:15.341Z,63.68
2023-02-19T06:20:18.542Z,60.27
2023-02-19T06:25:21.747Z,60.03
2023-02-19T06:30:25.036Z,65.33
2023-02-19T06:35:28.173Z,61.33
2023-02-19T06:40:31.271Z,58.00
2023-02-19T06:45:35.004Z,60.47
2023-02-19T06:50:38.143Z,66.00
2023-02-19T06:55:41.619Z,63.36
2023-02-19T07:00:44.846Z,60.32
2023-02-19T07:05:48.809Z,55.82
2023-02-19T07:10:59.783Z,59.94
2023-02-19T07:16:11.292Z,66.48
2023-02-19T07:21:16.582Z,62.80
2023-02-19T07:26:21.616Z,59.01
2023-02-19T07:31:24.928Z,62.80
2023-02-19T07:36:28.304Z,62.31
2023-02-19T07:41:32.195Z,59.23
2023-02-19T07:46:35.333Z,63.38
2023-02-19T07:51:40.064Z,61.65
2023-02-19T07:56:43.159Z,58.35
2023-02-19T08:02:05.013Z,63.29
2023-02-19T08:07:08.128Z,60.91
2023-02-19T08:12:30.882Z,60.42
2023-02-19T08:17:34.184Z,63.76
2023-02-19T08:22:37.491Z,59.96
2023-02-19T08:27:40.721Z,60.40
2023-02-19T08:32:43.920Z,64.50
2023-02-19T08:37:47.147Z,60.40
2023-02-19T08:42:50.536Z,60.89
2023-02-19T08:47:53.644Z,62.49
2023-02-19T08:52:57.062Z,59.21
2023-02-19T08:58:00.369Z,59.99
2023-02-19T09:03:03.477Z,63.99
2023-02-19T09:08:06.888Z,60.37
2023-02-19T09:13:10.008Z,60.27
2023-02-19T09:18:13.102Z,64.88
2023-02-19T09:23:16.414Z,59.69
2023-02-19T09:28:21.373Z,58.72
2023-02-19T09:33:24.672Z,63.91
2023-02-19T09:38:29.576Z,61.29
2023-02-19T09:43:33.844Z,57.59
2023-02-19T09:48:36.986Z,60.21
2023-02-19T09:53:51.044Z,63.86
2023-02-19T09:58:58.843Z,57.70
2023-02-19T10:04:02.257Z,58.15
2023-02-19T10:09:27.373Z,61.61
2023-02-19T10:14:42.049Z,63.60
2023-02-19T10:19:45.159Z,55.81
2023-02-19T10:24:55.712Z,57.47
2023-02-19T10:30:02.714Z,59.46
2023-02-19T10:35:14.881Z,61.38
2023-02-19T10:40:27.877Z,59.27
2023-02-19T10:45:48.432Z,57.48
2023-02-19T10:51:00.221Z,59.83
2023-02-19T10:56:24.832Z,60.59
2023-02-19T11:01:28.271Z,59.79
2023-02-19T11:06:32.937Z,60.19
2023-02-19T11:11:40.733Z,57.78
2023-02-19T11:16:52.173Z,57.78
2023-02-19T11:21:56.137Z,56.89
2023-02-19T11:27:00.839Z,56.96
2023-02-19T11:32:29.463Z,56.83
2023-02-19T11:37:33.408Z,56.95
2023-02-19T11:42:52.492Z,55.96
2023-02-19T11:48:31.026Z,55.50
2023-02-19T11:53:39.864Z,55.07
2023-02-19T11:58:49.013Z,54.41
2023-02-19T12:03:55.814Z,54.51
2023-02-19T12:09:26.883Z,54.03
2023-02-19T12:15:01.310Z,53.90
2023-02-19T12:20:26.019Z,54.08
2023-02-19T12:26:08.108Z,54.22
2023-02-19T12:31:36.155Z,54.27
2023-02-19T12:37:22.867Z,54.53
2023-02-19T12:42:34.677Z,53.83
2023-02-19T12:47:42.388Z,52.46
2023-02-19T12:52:54.191Z,51.99
2023-02-19T12:58:04.427Z,52.62
2023-02-19T13:03:23.162Z,52.33
2023-02-19T13:08:57.842Z,52.85
2023-02-19T13:14:26.719Z,52.02
2023-02-19T13:19:33.353Z,52.45
2023-02-19T13:24:43.040Z,52.90
2023-02-19T13:29:58.151Z,53.24
2023-02-19T13:35:42.916Z,53.36
2023-02-19T13:41:00.472Z,52.20
2023-02-19T13:46:09.606Z,52.09
2023-02-19T13:51:12.990Z,52.36
2023-02-19T13:56:31.901Z,52.16
2023-02-19T14:01:50.681Z,52.84
2023-02-19T14:07:05.921Z,52.90
2023-02-19T14:12:16.266Z,52.80
2023-02-19T14:17:47.103Z,52.64
2023-02-19T14:23:16.527Z,53.15
2023-02-19T14:28:31.504Z,52.88
2023-02-19T14:33:47.920Z,52.38
2023-02-19T14:38:57.527Z,52.07
2023-02-19T14:44:04.496Z,51.74
2023-02-19T14:49:40.277Z,51.48
2023-02-19T14:55:10.666Z,51.13
2023-02-19T15:00:31.002Z,51.03
2023-02-19T15:05:38.529Z,51.95
2023-02-19T15:10:45.632Z,52.51
2023-02-19T15:15:52.001Z,52.96
2023-02-19T15:21:07.461Z,53.29
2023-02-19T15:26:39.792Z,54.07
2023-02-19T15:31:58.766Z,54.07
2023-02-19T15:37:11.183Z,54.17
2023-02-19T15:42:40.133Z,53.81
2023-02-19T15:48:09.667Z,54.03
2023-02-19T15:53:32.498Z,54.40
2023-02-19T15:58:57.125Z,54.25
2023-02-19T16:04:04.367Z,54.08
2023-02-19T16:09:29.678Z,53.88
2023-02-19T16:14:37.830Z,53.91
2023-02-19T16:20:01.744Z,54.29
2023-02-19T16:25:08.929Z,54.57
2023-02-19T16:30:18.442Z,54.63
2023-02-19T16:35:39.994Z,54.88
2023-02-19T16:40:48.938Z,55.13
2023-02-19T16:45:52.562Z,55.35
2023-02-19T16:50:56.172Z,55.62
2023-02-19T16:56:00.063Z,56.30
2023-02-19T17:01:03.201Z,56.88
2023-02-19T17:06:07.189Z,57.61
2023-02-19T17:11:14.794Z,58.42
2023-02-19T17:16:28.883Z,58.80
2023-02-19T17:21:33.711Z,58.91
2023-02-19T17:26:37.433Z,59.41
2023-02-19T17:31:40.833Z,59.21
2023-02-19T17:36:45.657Z,59.14
2023-02-19T17:41:49.212Z,58.96
2023-02-19T17:46:52.439Z,58.65
2023-02-19T17:51:55.626Z,58.52
2023-02-19T17:56:58.748Z,58.27
2023-02-19T18:02:03.481Z,57.55
2023-02-19T18:07:06.583Z,57.26
2023-02-19T18:12:09.996Z,56.85
2023-02-19T18:17:13.218Z,56.85
2023-02-19T18:22:16.517Z,57.13
2023-02-19T18:27:20.777Z,57.25
2023-02-19T18:32:25.604Z,57.00
2023-02-19T18:37:31.553Z,56.90
2023-02-19T18:42:34.978Z,57.26
2023-02-19T18:47:38.327Z,57.63
2023-02-19T18:52:41.716Z,58.13
2023-02-19T18:57:46.905Z,58.64
2023-02-19T19:02:51.337Z,58.96
2023-02-19T19:07:59.562Z,59.22
2023-02-19T19:13:02.739Z,59.71
2023-02-19T19:18:06.282Z,59.77
2023-02-19T19:23:09.363Z,60.10
2023-02-19T19:28:12.704Z,60.36
2023-02-19T19:33:17.715Z,60.51
2023-02-19T19:38:20.949Z,60.84
2023-02-19T19:43:28.074Z,61.10
2023-02-19T19:48:33.390Z,61.16
2023-02-19T19:53:36.606Z,61.12
2023-02-19T19:58:40.629Z,61.03
2023-02-19T20:03:43.730Z,61.29
2023-02-19T20:08:46.948Z,61.51
2023-02-19T20:13:50.256Z,61.60
2023-02-19T20:18:53.767Z,62.02
2023-02-19T20:23:56.906Z,63.61
2023-02-19T20:29:00.182Z,60.33
2023-02-19T20:34:04.287Z,55.55
2023-02-19T20:39:07.419Z,58.17
2023-02-19T20:44:10.553Z,60.26
2023-02-19T20:49:16.483Z,63.12
2023-02-19T20:54:24.555Z,58.79
2023-02-19T20:59:31.310Z,59.01
2023-02-19T21:04:34.569Z,61.03
2023-02-19T21:09:37.729Z,61.64
2023-02-19T21:14:41.386Z,57.37
2023-02-19T21:19:44.769Z,61.16
2023-02-19T21:24:53.193Z,63.14
2023-02-19T21:29:56.308Z,59.29
2023-02-19T21:34:59.524Z,60.58
2023-02-19T21:40:02.833Z,65.43
2023-02-19T21:45:06.917Z,64.68
2023-02-19T21:50:10.978Z,57.11
2023-02-19T21:55:14.183Z,58.53
2023-02-19T22:00:18.438Z,63.82
2023-02-19T22:05:21.521Z,66.23
2023-02-19T22:10:24.730Z,57.20
2023-02-19T22:15:27.769Z,59.68
2023-02-19T22:20:31.055Z,64.29
2023-02-19T22:25:34.353Z,61.29
2023-02-19T22:30:37.672Z,56.85
2023-02-19T22:35:41.504Z,61.93
2023-02-19T22:40:44.602Z,64.03
2023-02-19T22:45:48.284Z,57.89
2023-02-19T22:50:52.830Z,62.90
2023-02-19T22:55:55.862Z,61.05
2023-02-19T23:00:59.035Z,59.50
2023-02-19T23:06:05.975Z,63.70
2023-02-19T23:11:11.789Z,62.67
2023-02-19T23:16:15.350Z,59.64
2023-02-19T23:21:20.738Z,63.71
2023-02-19T23:26:24.028Z,60.49
2023-02-19T23:31:27.384Z,61.71
2023-02-19T23:36:30.752Z,63.60
2023-02-19T23:41:33.751Z,61.30
2023-02-19T23:46:36.982Z,61.45
2023-02-19T23:51:40.578Z,60.77
2023-02-19T23:56:43.893Z,60.23
